sensor_id;sensor_type;location;lat;lon;timestamp;P1;durP1;ratioP1;P2;durP2;ratioP2
58306;SDS011;44116;50.884;4.768;2022-11-20T00:02:52;35.4;;;22.2;;
58306;SDS011;44116;50.884;4.768;2022-11-20T00:04:51;33.1;;;21.4;;
58306;SDS011;44116;50.884;4.768;2022-11-20T00:06:50;32.7;;;21.5;;
58306;SDS011;44116;50.884;4.768;2022-11-20T00:08:50;29.8;;;20.0;;
58306;SDS011;44116;50.884;4.768;2022-11-20T00:10:50;33.5;;;21.4;;
58306;SDS011;44116;50.884;4.768;2022-11-20T00:12:49;32.8;;;20.5;;
58306;SDS011;44116;50.884;4.768;2022-11-20T00:14:49;32.4;;;20.6;;
58306;SDS011;44116;50.884;4.768;2022-11-20T00:16:48;32.2;;;20.3;;
58306;SDS011;44116;50.884;4.768;2022-11-20T00:18:48;32.8;;;20.4;;
58306;SDS011;44116;50.884;4.768;2022-11-20T00:20:48;33.0;;;21.1;;
58306;SDS011;44116;50.884;4.768;2022-11-20T00:22:47;39.4;;;21.3;;
58306;SDS011;44116;50.884;4.768;2022-11-20T00:24:46;30.2;;;20.3;;
58306;SDS011;44116;50.884;4.768;2022-11-20T00:26:46;33.4;;;20.7;;
58306;SDS011;44116;50.884;4.768;2022-11-20T00:28:49;35.1;;;20.8;;
58306;SDS011;44116;50.884;4.768;2022-11-20T00:30:45;32.0;;;21.2;;
58306;SDS011;44116;50.884;4.768;2022-11-20T00:32:44;34.3;;;21.6;;
58306;SDS011;44116;50.884;4.768;2022-11-20T00:34:44;33.2;;;21.2;;
58306;SDS011;44116;50.884;4.768;2022-11-20T00:36:43;34.9;;;20.7;;
58306;SDS011;44116;50.884;4.768;2022-11-20T00:38:44;32.2;;;20.4;;
58306;SDS011;44116;50.884;4.768;2022-11-20T00:40:43;33.5;;;20.2;;
58306;SDS011;44116;50.884;4.768;2022-11-20T00:42:42;31.5;;;20.5;;
58306;SDS011;44116;50.884;4.768;2022-11-20T00:44:42;32.2;;;20.6;;
58306;SDS011;44116;50.884;4.768;2022-11-20T00:46:41;37.0;;;22.7;;
58306;SDS011;44116;50.884;4.768;2022-11-20T00:48:41;38.8;;;22.5;;
58306;SDS011;44116;50.884;4.768;2022-11-20T00:50:41;35.3;;;20.7;;
58306;SDS011;44116;50.884;4.768;2022-11-20T00:52:40;33.4;;;20.5;;
58306;SDS011;44116;50.884;4.768;2022-11-20T00:54:39;34.3;;;21.6;;
58306;SDS011;44116;50.884;4.768;2022-11-20T00:58:40;33.7;;;21.3;;
58306;SDS011;44116;50.884;4.768;2022-11-20T01:00:38;33.2;;;21.0;;
58306;SDS011;44116;50.884;4.768;2022-11-20T01:02:38;35.2;;;21.7;;
58306;SDS011;44116;50.884;4.768;2022-11-20T01:04:37;34.0;;;21.6;;
58306;SDS011;44116;50.884;4.768;2022-11-20T01:06:38;32.1;;;21.1;;
58306;SDS011;44116;50.884;4.768;2022-11-20T01:08:37;34.1;;;20.9;;
58306;SDS011;44116;50.884;4.768;2022-11-20T01:10:36;35.1;;;20.8;;
58306;SDS011;44116;50.884;4.768;2022-11-20T01:12:35;34.1;;;21.4;;
58306;SDS011;44116;50.884;4.768;2022-11-20T01:14:35;32.8;;;20.9;;
58306;SDS011;44116;50.884;4.768;2022-11-20T01:16:36;34.3;;;20.8;;
58306;SDS011;44116;50.884;4.768;2022-11-20T01:18:35;34.5;;;21.9;;
58306;SDS011;44116;50.884;4.768;2022-11-20T01:20:34;31.2;;;20.6;;
58306;SDS011;44116;50.884;4.768;2022-11-20T01:22:33;33.9;;;21.9;;
58306;SDS011;44116;50.884;4.768;2022-11-20T01:24:33;33.9;;;21.8;;
58306;SDS011;44116;50.884;4.768;2022-11-20T01:26:34;33.3;;;21.3;;
58306;SDS011;44116;50.884;4.768;2022-11-20T01:28:32;33.5;;;22.2;;
58306;SDS011;44116;50.884;4.768;2022-11-20T01:30:32;34.2;;;22.0;;
58306;SDS011;44116;50.884;4.768;2022-11-20T01:32:31;31.2;;;20.7;;
58306;SDS011;44116;50.884;4.768;2022-11-20T01:34:31;32.6;;;20.6;;
58306;SDS011;44116;50.884;4.768;2022-11-20T01:38:30;35.2;;;21.4;;
58306;SDS011;44116;50.884;4.768;2022-11-20T01:40:29;32.0;;;21.6;;
58306;SDS011;44116;50.884;4.768;2022-11-20T01:42:29;32.1;;;21.3;;
58306;SDS011;44116;50.884;4.768;2022-11-20T01:44:45;34.8;;;22.5;;
58306;SDS011;44116;50.884;4.768;2022-11-20T01:46:28;38.8;;;23.2;;
58306;SDS011;44116;50.884;4.768;2022-11-20T01:48:32;39.8;;;23.7;;
58306;SDS011;44116;50.884;4.768;2022-11-20T01:50:28;42.0;;;23.4;;
58306;SDS011;44116;50.884;4.768;2022-11-20T01:52:31;39.0;;;22.5;;
58306;SDS011;44116;50.884;4.768;2022-11-20T01:54:32;40.4;;;23.4;;
58306;SDS011;44116;50.884;4.768;2022-11-20T01:56:27;37.6;;;22.4;;
58306;SDS011;44116;50.884;4.768;2022-11-20T01:58:28;42.3;;;23.6;;
58306;SDS011;44116;50.884;4.768;2022-11-20T02:00:25;44.4;;;24.9;;
58306;SDS011;44116;50.884;4.768;2022-11-20T02:02:25;39.1;;;22.2;;
58306;SDS011;44116;50.884;4.768;2022-11-20T02:04:24;38.4;;;22.9;;
58306;SDS011;44116;50.884;4.768;2022-11-20T02:06:25;38.8;;;23.4;;
58306;SDS011;44116;50.884;4.768;2022-11-20T02:08:23;38.6;;;22.9;;
58306;SDS011;44116;50.884;4.768;2022-11-20T02:10:23;45.3;;;23.3;;
58306;SDS011;44116;50.884;4.768;2022-11-20T02:12:22;39.8;;;22.8;;
58306;SDS011;44116;50.884;4.768;2022-11-20T02:14:22;39.7;;;23.4;;
58306;SDS011;44116;50.884;4.768;2022-11-20T02:16:24;42.3;;;24.3;;
58306;SDS011;44116;50.884;4.768;2022-11-20T02:18:21;39.0;;;22.8;;
58306;SDS011;44116;50.884;4.768;2022-11-20T02:20:20;43.5;;;24.2;;
58306;SDS011;44116;50.884;4.768;2022-11-20T02:22:26;38.7;;;23.3;;
58306;SDS011;44116;50.884;4.768;2022-11-20T02:24:21;42.0;;;23.8;;
58306;SDS011;44116;50.884;4.768;2022-11-20T02:26:20;41.8;;;23.9;;
58306;SDS011;44116;50.884;4.768;2022-11-20T02:28:19;43.2;;;24.3;;
58306;SDS011;44116;50.884;4.768;2022-11-20T02:30:18;38.2;;;23.3;;
58306;SDS011;44116;50.884;4.768;2022-11-20T02:32:19;36.7;;;22.5;;
58306;SDS011;44116;50.884;4.768;2022-11-20T02:34:17;39.8;;;22.0;;
58306;SDS011;44116;50.884;4.768;2022-11-20T02:36:17;36.0;;;22.6;;
58306;SDS011;44116;50.884;4.768;2022-11-20T02:38:17;35.8;;;21.5;;
58306;SDS011;44116;50.884;4.768;2022-11-20T02:40:16;34.6;;;22.2;;
58306;SDS011;44116;50.884;4.768;2022-11-20T02:42:15;37.2;;;22.8;;
58306;SDS011;44116;50.884;4.768;2022-11-20T02:44:15;35.4;;;21.9;;
58306;SDS011;44116;50.884;4.768;2022-11-20T02:48:14;36.3;;;21.1;;
58306;SDS011;44116;50.884;4.768;2022-11-20T02:50:14;36.5;;;21.7;;
58306;SDS011;44116;50.884;4.768;2022-11-20T02:52:13;38.0;;;23.0;;
58306;SDS011;44116;50.884;4.768;2022-11-20T02:54:13;37.5;;;22.2;;
58306;SDS011;44116;50.884;4.768;2022-11-20T02:56:12;36.1;;;22.4;;
58306;SDS011;44116;50.884;4.768;2022-11-20T02:58:12;39.2;;;23.1;;
58306;SDS011;44116;50.884;4.768;2022-11-20T03:00:12;40.2;;;22.3;;
58306;SDS011;44116;50.884;4.768;2022-11-20T03:02:11;38.9;;;22.5;;
58306;SDS011;44116;50.884;4.768;2022-11-20T03:04:11;37.2;;;22.6;;
58306;SDS011;44116;50.884;4.768;2022-11-20T03:06:11;37.3;;;22.5;;
58306;SDS011;44116;50.884;4.768;2022-11-20T03:08:09;39.9;;;21.5;;
58306;SDS011;44116;50.884;4.768;2022-11-20T03:10:09;40.4;;;23.6;;
58306;SDS011;44116;50.884;4.768;2022-11-20T03:12:09;40.2;;;24.0;;
58306;SDS011;44116;50.884;4.768;2022-11-20T03:16:10;38.0;;;23.0;;
58306;SDS011;44116;50.884;4.768;2022-11-20T03:18:07;43.8;;;24.9;;
58306;SDS011;44116;50.884;4.768;2022-11-20T03:20:09;39.0;;;24.1;;
58306;SDS011;44116;50.884;4.768;2022-11-20T03:22:06;39.7;;;23.2;;
58306;SDS011;44116;50.884;4.768;2022-11-20T03:24:07;54.1;;;26.7;;
58306;SDS011;44116;50.884;4.768;2022-11-20T03:26:09;46.2;;;26.1;;
58306;SDS011;44116;50.884;4.768;2022-11-20T03:28:05;44.5;;;25.9;;
58306;SDS011;44116;50.884;4.768;2022-11-20T03:30:05;42.7;;;25.5;;
58306;SDS011;44116;50.884;4.768;2022-11-20T03:32:05;45.2;;;25.2;;
58306;SDS011;44116;50.884;4.768;2022-11-20T03:34:04;47.6;;;26.2;;
58306;SDS011;44116;50.884;4.768;2022-11-20T03:36:05;44.8;;;25.2;;
58306;SDS011;44116;50.884;4.768;2022-11-20T03:38:03;46.1;;;26.0;;
58306;SDS011;44116;50.884;4.768;2022-11-20T03:40:04;44.9;;;26.4;;
58306;SDS011;44116;50.884;4.768;2022-11-20T03:42:02;47.5;;;27.1;;
58306;SDS011;44116;50.884;4.768;2022-11-20T03:44:03;46.1;;;25.6;;
58306;SDS011;44116;50.884;4.768;2022-11-20T03:46:03;50.2;;;26.1;;
58306;SDS011;44116;50.884;4.768;2022-11-20T03:48:01;48.5;;;26.3;;
58306;SDS011;44116;50.884;4.768;2022-11-20T03:50:00;45.2;;;25.2;;
58306;SDS011;44116;50.884;4.768;2022-11-20T03:52:00;46.7;;;26.7;;
58306;SDS011;44116;50.884;4.768;2022-11-20T03:57:58;51.3;;;27.9;;
58306;SDS011;44116;50.884;4.768;2022-11-20T03:59:58;49.8;;;27.2;;
58306;SDS011;44116;50.884;4.768;2022-11-20T04:01:57;49.3;;;25.8;;
58306;SDS011;44116;50.884;4.768;2022-11-20T04:03:57;52.0;;;26.8;;
58306;SDS011;44116;50.884;4.768;2022-11-20T04:06:00;48.0;;;26.7;;
58306;SDS011;44116;50.884;4.768;2022-11-20T04:07:57;47.5;;;26.6;;
58306;SDS011;44116;50.884;4.768;2022-11-20T04:09:56;47.1;;;26.0;;
58306;SDS011;44116;50.884;4.768;2022-11-20T04:11:55;51.9;;;27.6;;
58306;SDS011;44116;50.884;4.768;2022-11-20T04:13:56;51.0;;;27.8;;
58306;SDS011;44116;50.884;4.768;2022-11-20T04:15:57;54.7;;;28.5;;
58306;SDS011;44116;50.884;4.768;2022-11-20T04:17:54;54.5;;;27.7;;
58306;SDS011;44116;50.884;4.768;2022-11-20T04:19:53;54.6;;;26.7;;
58306;SDS011;44116;50.884;4.768;2022-11-20T04:23:53;53.8;;;27.5;;
58306;SDS011;44116;50.884;4.768;2022-11-20T04:25:52;53.1;;;27.4;;
58306;SDS011;44116;50.884;4.768;2022-11-20T04:27:52;49.3;;;27.5;;
58306;SDS011;44116;50.884;4.768;2022-11-20T04:29:51;56.4;;;28.6;;
58306;SDS011;44116;50.884;4.768;2022-11-20T04:31:51;53.7;;;28.2;;
58306;SDS011;44116;50.884;4.768;2022-11-20T04:33:50;50.5;;;26.9;;
58306;SDS011;44116;50.884;4.768;2022-11-20T04:35:50;53.4;;;27.8;;
58306;SDS011;44116;50.884;4.768;2022-11-20T04:37:51;52.0;;;27.7;;
58306;SDS011;44116;50.884;4.768;2022-11-20T04:39:49;50.0;;;26.0;;
58306;SDS011;44116;50.884;4.768;2022-11-20T04:41:48;49.8;;;26.7;;
58306;SDS011;44116;50.884;4.768;2022-11-20T04:43:49;53.2;;;27.8;;
58306;SDS011;44116;50.884;4.768;2022-11-20T04:45:50;47.3;;;26.1;;
58306;SDS011;44116;50.884;4.768;2022-11-20T04:47:47;48.9;;;27.0;;
58306;SDS011;44116;50.884;4.768;2022-11-20T04:49:47;53.1;;;27.2;;
58306;SDS011;44116;50.884;4.768;2022-11-20T04:51:46;51.7;;;26.8;;
58306;SDS011;44116;50.884;4.768;2022-11-20T04:53:46;53.5;;;26.9;;
58306;SDS011;44116;50.884;4.768;2022-11-20T04:55:45;51.9;;;27.8;;
58306;SDS011;44116;50.884;4.768;2022-11-20T04:57:45;47.5;;;26.3;;
58306;SDS011;44116;50.884;4.768;2022-11-20T04:59:44;48.7;;;26.1;;
58306;SDS011;44116;50.884;4.768;2022-11-20T05:01:44;49.7;;;26.8;;
58306;SDS011;44116;50.884;4.768;2022-11-20T05:03:44;52.6;;;27.5;;
58306;SDS011;44116;50.884;4.768;2022-11-20T05:05:43;51.4;;;27.1;;
58306;SDS011;44116;50.884;4.768;2022-11-20T05:07:43;46.6;;;25.7;;
58306;SDS011;44116;50.884;4.768;2022-11-20T05:09:42;49.2;;;26.2;;
58306;SDS011;44116;50.884;4.768;2022-11-20T05:11:41;45.2;;;24.9;;
58306;SDS011;44116;50.884;4.768;2022-11-20T05:13:42;47.9;;;24.8;;
58306;SDS011;44116;50.884;4.768;2022-11-20T05:15:41;44.7;;;24.5;;
58306;SDS011;44116;50.884;4.768;2022-11-20T05:17:40;48.2;;;25.2;;
58306;SDS011;44116;50.884;4.768;2022-11-20T05:19:40;50.6;;;25.1;;
58306;SDS011;44116;50.884;4.768;2022-11-20T05:21:39;47.6;;;25.2;;
58306;SDS011;44116;50.884;4.768;2022-11-20T05:23:39;45.7;;;25.4;;
58306;SDS011;44116;50.884;4.768;2022-11-20T05:25:38;48.0;;;25.7;;
58306;SDS011;44116;50.884;4.768;2022-11-20T05:27:38;48.6;;;26.7;;
58306;SDS011;44116;50.884;4.768;2022-11-20T05:29:38;47.9;;;25.8;;
58306;SDS011;44116;50.884;4.768;2022-11-20T05:31:39;50.0;;;26.2;;
58306;SDS011;44116;50.884;4.768;2022-11-20T05:33:39;47.9;;;25.7;;
58306;SDS011;44116;50.884;4.768;2022-11-20T05:35:36;51.1;;;26.2;;
58306;SDS011;44116;50.884;4.768;2022-11-20T05:37:36;48.4;;;26.1;;
58306;SDS011;44116;50.884;4.768;2022-11-20T05:39:35;52.3;;;26.2;;
58306;SDS011;44116;50.884;4.768;2022-11-20T05:41:35;49.7;;;25.5;;
58306;SDS011;44116;50.884;4.768;2022-11-20T05:43:35;47.6;;;24.5;;
58306;SDS011;44116;50.884;4.768;2022-11-20T05:45:34;45.6;;;25.0;;
58306;SDS011;44116;50.884;4.768;2022-11-20T05:47:34;48.4;;;24.8;;
58306;SDS011;44116;50.884;4.768;2022-11-20T05:49:33;47.1;;;25.9;;
58306;SDS011;44116;50.884;4.768;2022-11-20T05:51:32;47.8;;;25.4;;
58306;SDS011;44116;50.884;4.768;2022-11-20T05:53:33;47.7;;;25.3;;
58306;SDS011;44116;50.884;4.768;2022-11-20T05:55:32;48.0;;;25.6;;
58306;SDS011;44116;50.884;4.768;2022-11-20T05:57:31;44.6;;;24.3;;
58306;SDS011;44116;50.884;4.768;2022-11-20T05:59:31;43.4;;;24.0;;
58306;SDS011;44116;50.884;4.768;2022-11-20T06:01:30;47.8;;;24.3;;
58306;SDS011;44116;50.884;4.768;2022-11-20T06:03:30;49.9;;;25.9;;
58306;SDS011;44116;50.884;4.768;2022-11-20T06:05:29;43.3;;;24.6;;
58306;SDS011;44116;50.884;4.768;2022-11-20T06:07:29;45.8;;;25.1;;
58306;SDS011;44116;50.884;4.768;2022-11-20T06:09:29;48.4;;;25.2;;
58306;SDS011;44116;50.884;4.768;2022-11-20T06:11:28;42.7;;;23.6;;
58306;SDS011;44116;50.884;4.768;2022-11-20T06:13:27;43.2;;;23.4;;
58306;SDS011;44116;50.884;4.768;2022-11-20T06:15:27;44.2;;;23.2;;
58306;SDS011;44116;50.884;4.768;2022-11-20T06:17:27;40.1;;;22.1;;
58306;SDS011;44116;50.884;4.768;2022-11-20T06:19:26;42.5;;;22.3;;
58306;SDS011;44116;50.884;4.768;2022-11-20T06:21:26;38.3;;;22.6;;
58306;SDS011;44116;50.884;4.768;2022-11-20T06:23:27;41.2;;;21.9;;
58306;SDS011;44116;50.884;4.768;2022-11-20T06:25:25;38.0;;;20.7;;
58306;SDS011;44116;50.884;4.768;2022-11-20T06:27:24;41.1;;;22.3;;
58306;SDS011;44116;50.884;4.768;2022-11-20T06:29:24;38.4;;;22.1;;
58306;SDS011;44116;50.884;4.768;2022-11-20T06:31:25;39.5;;;21.4;;
58306;SDS011;44116;50.884;4.768;2022-11-20T06:33:23;41.4;;;22.6;;
58306;SDS011;44116;50.884;4.768;2022-11-20T06:35:23;43.6;;;23.7;;
58306;SDS011;44116;50.884;4.768;2022-11-20T06:37:22;40.2;;;21.7;;
58306;SDS011;44116;50.884;4.768;2022-11-20T06:41:22;42.0;;;22.8;;
58306;SDS011;44116;50.884;4.768;2022-11-20T06:45:20;42.7;;;22.6;;
58306;SDS011;44116;50.884;4.768;2022-11-20T06:47:20;40.5;;;22.8;;
58306;SDS011;44116;50.884;4.768;2022-11-20T06:49:20;46.1;;;23.8;;
58306;SDS011;44116;50.884;4.768;2022-11-20T06:51:19;41.8;;;22.4;;
58306;SDS011;44116;50.884;4.768;2022-11-20T06:53:19;42.3;;;22.1;;
58306;SDS011;44116;50.884;4.768;2022-11-20T06:57:18;43.0;;;22.6;;
58306;SDS011;44116;50.884;4.768;2022-11-20T06:59:17;47.7;;;23.3;;
58306;SDS011;44116;50.884;4.768;2022-11-20T07:01:17;47.7;;;23.7;;
58306;SDS011;44116;50.884;4.768;2022-11-20T07:03:16;52.1;;;23.8;;
58306;SDS011;44116;50.884;4.768;2022-11-20T07:05:16;49.9;;;24.0;;
58306;SDS011;44116;50.884;4.768;2022-11-20T07:07:16;52.9;;;23.6;;
58306;SDS011;44116;50.884;4.768;2022-11-20T07:09:15;51.2;;;23.4;;
58306;SDS011;44116;50.884;4.768;2022-11-20T07:11:15;57.2;;;25.2;;
58306;SDS011;44116;50.884;4.768;2022-11-20T07:13:14;55.7;;;25.1;;
58306;SDS011;44116;50.884;4.768;2022-11-20T07:15:14;58.5;;;25.2;;
58306;SDS011;44116;50.884;4.768;2022-11-20T07:17:13;55.8;;;24.5;;
58306;SDS011;44116;50.884;4.768;2022-11-20T07:19:13;58.9;;;25.0;;
58306;SDS011;44116;50.884;4.768;2022-11-20T07:21:12;58.2;;;25.5;;
58306;SDS011;44116;50.884;4.768;2022-11-20T07:23:12;59.2;;;25.2;;
58306;SDS011;44116;50.884;4.768;2022-11-20T07:27:11;59.1;;;24.5;;
58306;SDS011;44116;50.884;4.768;2022-11-20T07:29:11;63.7;;;25.9;;
58306;SDS011;44116;50.884;4.768;2022-11-20T07:31:11;64.7;;;26.4;;
58306;SDS011;44116;50.884;4.768;2022-11-20T07:33:10;64.2;;;25.1;;
58306;SDS011;44116;50.884;4.768;2022-11-20T07:35:09;65.9;;;26.6;;
58306;SDS011;44116;50.884;4.768;2022-11-20T07:37:09;67.7;;;27.5;;
58306;SDS011;44116;50.884;4.768;2022-11-20T07:39:08;62.2;;;25.2;;
58306;SDS011;44116;50.884;4.768;2022-11-20T07:41:08;63.9;;;25.1;;
58306;SDS011;44116;50.884;4.768;2022-11-20T07:43:07;65.4;;;26.0;;
58306;SDS011;44116;50.884;4.768;2022-11-20T07:45:07;65.0;;;27.2;;
58306;SDS011;44116;50.884;4.768;2022-11-20T07:47:07;63.7;;;26.5;;
58306;SDS011;44116;50.884;4.768;2022-11-20T07:49:06;71.2;;;27.2;;
58306;SDS011;44116;50.884;4.768;2022-11-20T07:51:06;65.6;;;26.6;;
58306;SDS011;44116;50.884;4.768;2022-11-20T07:53:06;76.3;;;27.6;;
58306;SDS011;44116;50.884;4.768;2022-11-20T07:55:07;66.0;;;27.1;;
58306;SDS011;44116;50.884;4.768;2022-11-20T07:57:04;68.5;;;27.6;;
58306;SDS011;44116;50.884;4.768;2022-11-20T07:59:04;70.6;;;27.0;;
58306;SDS011;44116;50.884;4.768;2022-11-20T08:01:04;70.4;;;26.9;;
58306;SDS011;44116;50.884;4.768;2022-11-20T08:03:03;69.6;;;28.1;;
58306;SDS011;44116;50.884;4.768;2022-11-20T08:05:03;68.5;;;27.4;;
58306;SDS011;44116;50.884;4.768;2022-11-20T08:07:02;69.5;;;27.3;;
58306;SDS011;44116;50.884;4.768;2022-11-20T08:09:02;72.3;;;27.2;;
58306;SDS011;44116;50.884;4.768;2022-11-20T08:11:01;66.7;;;28.6;;
58306;SDS011;44116;50.884;4.768;2022-11-20T08:13:01;66.4;;;27.4;;
58306;SDS011;44116;50.884;4.768;2022-11-20T08:15:02;67.0;;;26.5;;
58306;SDS011;44116;50.884;4.768;2022-11-20T08:17:00;66.5;;;26.6;;
58306;SDS011;44116;50.884;4.768;2022-11-20T08:19:00;68.2;;;27.0;;
58306;SDS011;44116;50.884;4.768;2022-11-20T08:21:01;71.2;;;28.2;;
58306;SDS011;44116;50.884;4.768;2022-11-20T08:23:00;71.4;;;28.0;;
58306;SDS011;44116;50.884;4.768;2022-11-20T08:24:58;66.5;;;27.2;;
58306;SDS011;44116;50.884;4.768;2022-11-20T08:26:58;62.6;;;26.7;;
58306;SDS011;44116;50.884;4.768;2022-11-20T08:28:58;65.9;;;27.3;;
58306;SDS011;44116;50.884;4.768;2022-11-20T08:30:58;62.7;;;26.3;;
58306;SDS011;44116;50.884;4.768;2022-11-20T08:33:01;64.8;;;26.5;;
58306;SDS011;44116;50.884;4.768;2022-11-20T08:34:56;61.5;;;25.9;;
58306;SDS011;44116;50.884;4.768;2022-11-20T08:36:56;62.5;;;26.2;;
58306;SDS011;44116;50.884;4.768;2022-11-20T08:38:55;65.8;;;27.3;;
58306;SDS011;44116;50.884;4.768;2022-11-20T08:40:56;65.6;;;27.1;;
58306;SDS011;44116;50.884;4.768;2022-11-20T08:42:55;65.3;;;27.5;;
58306;SDS011;44116;50.884;4.768;2022-11-20T08:44:54;65.3;;;27.1;;
58306;SDS011;44116;50.884;4.768;2022-11-20T08:46:54;64.0;;;26.3;;
58306;SDS011;44116;50.884;4.768;2022-11-20T08:48:53;67.8;;;27.3;;
58306;SDS011;44116;50.884;4.768;2022-11-20T08:50:57;72.4;;;28.8;;
58306;SDS011;44116;50.884;4.768;2022-11-20T08:52:53;66.5;;;26.7;;
58306;SDS011;44116;50.884;4.768;2022-11-20T08:54:52;71.6;;;27.7;;
58306;SDS011;44116;50.884;4.768;2022-11-20T08:56:52;69.8;;;28.3;;
58306;SDS011;44116;50.884;4.768;2022-11-20T08:58:52;70.8;;;28.0;;
58306;SDS011;44116;50.884;4.768;2022-11-20T09:00:51;76.6;;;29.5;;
58306;SDS011;44116;50.884;4.768;2022-11-20T09:02:51;69.3;;;28.4;;
58306;SDS011;44116;50.884;4.768;2022-11-20T09:04:50;112.4;;;49.2;;
58306;SDS011;44116;50.884;4.768;2022-11-20T09:06:50;93.4;;;39.3;;
58306;SDS011;44116;50.884;4.768;2022-11-20T09:08:51;76.3;;;31.0;;
58306;SDS011;44116;50.884;4.768;2022-11-20T09:10:51;69.9;;;27.6;;
58306;SDS011;44116;50.884;4.768;2022-11-20T09:12:49;67.1;;;27.1;;
58306;SDS011;44116;50.884;4.768;2022-11-20T09:14:48;76.5;;;31.3;;
58306;SDS011;44116;50.884;4.768;2022-11-20T09:16:49;95.8;;;38.4;;
58306;SDS011;44116;50.884;4.768;2022-11-20T09:18:49;69.7;;;27.9;;
58306;SDS011;44116;50.884;4.768;2022-11-20T09:20:47;91.1;;;36.4;;
58306;SDS011;44116;50.884;4.768;2022-11-20T09:22:47;152.1;;;54.8;;
58306;SDS011;44116;50.884;4.768;2022-11-20T09:24:46;86.2;;;33.7;;
58306;SDS011;44116;50.884;4.768;2022-11-20T09:26:46;72.3;;;29.4;;
58306;SDS011;44116;50.884;4.768;2022-11-20T09:28:45;69.9;;;26.7;;
58306;SDS011;44116;50.884;4.768;2022-11-20T09:30:45;71.6;;;28.7;;
58306;SDS011;44116;50.884;4.768;2022-11-20T09:32:45;75.5;;;29.8;;
58306;SDS011;44116;50.884;4.768;2022-11-20T09:34:44;74.1;;;29.3;;
58306;SDS011;44116;50.884;4.768;2022-11-20T09:36:45;96.0;;;38.4;;
58306;SDS011;44116;50.884;4.768;2022-11-20T09:38:44;92.2;;;37.4;;
58306;SDS011;44116;50.884;4.768;2022-11-20T09:40:48;70.2;;;28.4;;
58306;SDS011;44116;50.884;4.768;2022-11-20T09:42:45;79.0;;;31.9;;
58306;SDS011;44116;50.884;4.768;2022-11-20T09:44:54;75.3;;;30.1;;
58306;SDS011;44116;50.884;4.768;2022-11-20T09:46:48;75.3;;;30.2;;
58306;SDS011;44116;50.884;4.768;2022-11-20T09:48:51;74.4;;;29.8;;
58306;SDS011;44116;50.884;4.768;2022-11-20T09:50:45;72.7;;;29.2;;
58306;SDS011;44116;50.884;4.768;2022-11-20T09:52:45;73.2;;;29.4;;
58306;SDS011;44116;50.884;4.768;2022-11-20T09:54:40;67.7;;;27.6;;
58306;SDS011;44116;50.884;4.768;2022-11-20T09:56:44;68.8;;;24.4;;
58306;SDS011;44116;50.884;4.768;2022-11-20T09:58:41;64.9;;;26.7;;
58306;SDS011;44116;50.884;4.768;2022-11-20T10:00:39;61.2;;;25.7;;
58306;SDS011;44116;50.884;4.768;2022-11-20T10:02:44;53.6;;;24.3;;
58306;SDS011;44116;50.884;4.768;2022-11-20T10:04:43;57.4;;;23.7;;
58306;SDS011;44116;50.884;4.768;2022-11-20T10:06:44;55.9;;;23.5;;
58306;SDS011;44116;50.884;4.768;2022-11-20T10:08:43;54.1;;;25.0;;
58306;SDS011;44116;50.884;4.768;2022-11-20T10:10:42;56.6;;;25.1;;
58306;SDS011;44116;50.884;4.768;2022-11-20T10:12:50;55.0;;;23.3;;
58306;SDS011;44116;50.884;4.768;2022-11-20T10:14:46;52.1;;;23.7;;
58306;SDS011;44116;50.884;4.768;2022-11-20T10:16:43;58.3;;;23.3;;
58306;SDS011;44116;50.884;4.768;2022-11-20T10:18:46;56.0;;;23.2;;
58306;SDS011;44116;50.884;4.768;2022-11-20T10:20:43;51.3;;;22.8;;
58306;SDS011;44116;50.884;4.768;2022-11-20T10:22:47;50.1;;;23.3;;
58306;SDS011;44116;50.884;4.768;2022-11-20T10:24:44;51.0;;;22.1;;
58306;SDS011;44116;50.884;4.768;2022-11-20T10:26:41;50.2;;;21.8;;
58306;SDS011;44116;50.884;4.768;2022-11-20T10:28:46;48.9;;;21.0;;
58306;SDS011;44116;50.884;4.768;2022-11-20T10:32:37;42.1;;;20.0;;
58306;SDS011;44116;50.884;4.768;2022-11-20T10:34:38;44.2;;;20.1;;
58306;SDS011;44116;50.884;4.768;2022-11-20T10:36:35;42.1;;;19.1;;
58306;SDS011;44116;50.884;4.768;2022-11-20T10:38:37;40.0;;;20.2;;
58306;SDS011;44116;50.884;4.768;2022-11-20T10:40:36;37.9;;;19.0;;
58306;SDS011;44116;50.884;4.768;2022-11-20T10:42:36;38.8;;;18.5;;
58306;SDS011;44116;50.884;4.768;2022-11-20T10:44:31;37.3;;;18.3;;
58306;SDS011;44116;50.884;4.768;2022-11-20T10:46:38;35.5;;;17.8;;
58306;SDS011;44116;50.884;4.768;2022-11-20T10:48:32;39.2;;;17.3;;
58306;SDS011;44116;50.884;4.768;2022-11-20T10:50:30;30.6;;;17.1;;
58306;SDS011;44116;50.884;4.768;2022-11-20T10:52:37;34.3;;;17.4;;
58306;SDS011;44116;50.884;4.768;2022-11-20T10:54:35;33.1;;;16.6;;
58306;SDS011;44116;50.884;4.768;2022-11-20T10:56:35;29.6;;;15.8;;
58306;SDS011;44116;50.884;4.768;2022-11-20T10:58:33;32.4;;;16.1;;
58306;SDS011;44116;50.884;4.768;2022-11-20T11:00:30;32.5;;;16.2;;
58306;SDS011;44116;50.884;4.768;2022-11-20T11:02:34;31.7;;;15.7;;
58306;SDS011;44116;50.884;4.768;2022-11-20T11:04:35;27.4;;;14.2;;
58306;SDS011;44116;50.884;4.768;2022-11-20T11:06:32;26.6;;;13.8;;
58306;SDS011;44116;50.884;4.768;2022-11-20T11:08:28;29.9;;;14.2;;
58306;SDS011;44116;50.884;4.768;2022-11-20T11:10:33;27.0;;;14.6;;
58306;SDS011;44116;50.884;4.768;2022-11-20T11:12:28;25.8;;;13.5;;
58306;SDS011;44116;50.884;4.768;2022-11-20T11:14:25;23.9;;;12.6;;
58306;SDS011;44116;50.884;4.768;2022-11-20T11:16:26;27.7;;;12.7;;
58306;SDS011;44116;50.884;4.768;2022-11-20T11:18:26;19.3;;;11.0;;
58306;SDS011;44116;50.884;4.768;2022-11-20T11:20:26;19.5;;;10.5;;
58306;SDS011;44116;50.884;4.768;2022-11-20T11:22:24;19.1;;;10.6;;
58306;SDS011;44116;50.884;4.768;2022-11-20T11:24:25;17.4;;;9.8;;
58306;SDS011;44116;50.884;4.768;2022-11-20T11:26:24;17.1;;;8.6;;
58306;SDS011;44116;50.884;4.768;2022-11-20T11:28:24;14.9;;;8.0;;
58306;SDS011;44116;50.884;4.768;2022-11-20T11:30:24;15.0;;;7.8;;
58306;SDS011;44116;50.884;4.768;2022-11-20T11:32:22;12.9;;;7.7;;
58306;SDS011;44116;50.884;4.768;2022-11-20T11:34:22;16.3;;;8.3;;
58306;SDS011;44116;50.884;4.768;2022-11-20T11:36:22;15.1;;;7.5;;
58306;SDS011;44116;50.884;4.768;2022-11-20T11:38:27;13.0;;;6.7;;
58306;SDS011;44116;50.884;4.768;2022-11-20T11:40:22;13.3;;;7.2;;
58306;SDS011;44116;50.884;4.768;2022-11-20T11:44:22;14.7;;;6.9;;
58306;SDS011;44116;50.884;4.768;2022-11-20T11:46:26;11.9;;;6.1;;
58306;SDS011;44116;50.884;4.768;2022-11-20T11:48:20;11.2;;;5.7;;
58306;SDS011;44116;50.884;4.768;2022-11-20T11:50:21;9.3;;;5.4;;
58306;SDS011;44116;50.884;4.768;2022-11-20T11:52:22;10.7;;;5.6;;
58306;SDS011;44116;50.884;4.768;2022-11-20T11:56:19;9.2;;;4.9;;
58306;SDS011;44116;50.884;4.768;2022-11-20T11:58:24;12.9;;;5.4;;
58306;SDS011;44116;50.884;4.768;2022-11-20T12:00:20;9.1;;;4.6;;
58306;SDS011;44116;50.884;4.768;2022-11-20T12:04:23;10.5;;;4.1;;
58306;SDS011;44116;50.884;4.768;2022-11-20T12:06:17;8.0;;;3.8;;
58306;SDS011;44116;50.884;4.768;2022-11-20T12:08:23;11.9;;;4.2;;
58306;SDS011;44116;50.884;4.768;2022-11-20T12:10:21;10.3;;;4.3;;
58306;SDS011;44116;50.884;4.768;2022-11-20T12:12:19;7.6;;;4.1;;
58306;SDS011;44116;50.884;4.768;2022-11-20T12:14:18;8.2;;;3.4;;
58306;SDS011;44116;50.884;4.768;2022-11-20T12:16:18;8.4;;;4.0;;
58306;SDS011;44116;50.884;4.768;2022-11-20T12:18:16;8.0;;;3.4;;
58306;SDS011;44116;50.884;4.768;2022-11-20T12:20:14;8.0;;;3.6;;
58306;SDS011;44116;50.884;4.768;2022-11-20T12:22:25;7.6;;;3.1;;
58306;SDS011;44116;50.884;4.768;2022-11-20T12:24:29;9.4;;;3.3;;
58306;SDS011;44116;50.884;4.768;2022-11-20T12:26:21;13.0;;;3.6;;
58306;SDS011;44116;50.884;4.768;2022-11-20T12:28:24;11.1;;;4.2;;
58306;SDS011;44116;50.884;4.768;2022-11-20T12:30:14;10.9;;;3.9;;
58306;SDS011;44116;50.884;4.768;2022-11-20T12:32:31;9.7;;;4.2;;
58306;SDS011;44116;50.884;4.768;2022-11-20T12:34:21;9.3;;;3.7;;